»·PEaware :: COA250 KTUL-KSTL

COA250 :: KTUL-KSTL

FLIGHT INFORMATION

Flight Status: Arrived
Operator:
Continental Air Lines
More flights by this operator :: More flights under this callsign
Pilot: Andrew J. (13363)
Aircraft: BOEING 737-200
(B732)
More flights by this aircraft type
Origin: KTUL Tulsa Intl
United States
Destination: KSTL Lambert-St Louis Intl
United States
More flights between these airports :: More routes between these airports
Route: EOS ADAIR J98 SGF J8 STL
File this flight plan on PilotEdge
Remarks: twitch.tv / ajonesieee
Altitude:
(Current/Filed)
31,000ft
Speed:
(Current/Filed)
480kts
Departed: 29-Apr-17 05:47 PM
Arrived: 29-Apr-17 06:45 PM
Distance/Time
Traveled:
304nm/0:58
Distance/Time
To Go:
Arrived

Flight Plot

Page will automatically refresh every two minutes.


Map Options




Map Legend


Flown Route
Filed Route
Departure Airport
Arrival Airport
Navaid (VOR, NDB)
Fix

Horizontal Profiles

Position Reports

Time Latitude Longitude Heading Altitude Ground
Speed
29-Apr-17 17:39 36.191480 -95.887380 131 685ft 0kts
29-Apr-17 17:40 36.191480 -95.887380 131 685ft 0kts
29-Apr-17 17:41 36.191480 -95.887380 131 685ft 0kts
29-Apr-17 17:42 36.191480 -95.887380 131 685ft 0kts
29-Apr-17 17:43 36.191480 -95.887380 131 685ft 0kts
29-Apr-17 17:44 36.191997 -95.887056 14 685ft 0kts
29-Apr-17 17:45 36.194658 -95.884826 76 685ft 22kts
29-Apr-17 17:46 36.193329 -95.881584 183 685ft 9kts
29-Apr-17 17:47 36.189016 -95.881897 181 685ft 20kts
29-Apr-17 17:48 36.188540 -95.883009 8 685ft 0kts
29-Apr-17 17:49 36.207917 -95.882046 358 1244ft 149kts
29-Apr-17 17:50 36.242900 -95.853215 53 3568ft 221kts
29-Apr-17 17:51 36.277710 -95.784525 56 7261ft 238kts
29-Apr-17 17:52 36.311744 -95.711370 65 9824ft 265kts
29-Apr-17 17:53 36.350567 -95.621992 66 10442ft 357kts
29-Apr-17 17:54 36.395667 -95.516318 66 13069ft 375kts
29-Apr-17 17:55 36.444632 -95.400302 65 15366ft 398kts
29-Apr-17 17:56 36.490554 -95.289612 66 17135ft 416kts
29-Apr-17 17:57 36.542367 -95.164464 65 18916ft 431kts
29-Apr-17 17:58 36.595683 -95.036221 64 20576ft 444kts
29-Apr-17 17:59 36.649261 -94.907047 64 22066ft 456kts
29-Apr-17 18:00 36.704157 -94.769748 72 23444ft 466kts
29-Apr-17 18:01 36.763926 -94.633423 63 24756ft 477kts
29-Apr-17 18:02 36.823712 -94.498220 60 25894ft 487kts
29-Apr-17 18:03 36.888993 -94.356731 60 26991ft 497kts
29-Apr-17 18:04 36.951887 -94.218663 60 27908ft 505kts
29-Apr-17 18:05 37.018458 -94.074025 60 28878ft 514kts
29-Apr-17 18:06 37.089019 -93.920482 58 29336ft 538kts
29-Apr-17 18:07 37.139786 -93.811700 58 30013ft 543kts
29-Apr-17 18:08 37.204096 -93.671702 59 30735ft 551kts
29-Apr-17 18:09 37.263934 -93.540408 59 30769ft 552kts
29-Apr-17 18:10 37.326344 -93.402703 59 30782ft 559kts
29-Apr-17 18:11 37.387389 -93.265606 60 30767ft 551kts
29-Apr-17 18:12 37.449438 -93.126018 60 30802ft 543kts
29-Apr-17 18:13 37.511817 -92.986288 60 30891ft 544kts
29-Apr-17 18:14 37.577577 -92.838545 60 30916ft 547kts
29-Apr-17 18:15 37.648349 -92.678849 60 30919ft 550kts
29-Apr-17 18:16 37.715692 -92.526154 60 30940ft 553kts
29-Apr-17 18:17 37.783284 -92.372200 60 30951ft 555kts
29-Apr-17 18:18 37.844298 -92.229591 60 30021ft 537kts
29-Apr-17 18:19 37.907845 -92.092211 57 27833ft 525kts
29-Apr-17 18:20 37.974169 -91.969941 51 26108ft 503kts
29-Apr-17 18:21 38.042371 -91.855364 49 24531ft 480kts
29-Apr-17 18:22 38.107492 -91.748032 49 23135ft 458kts
29-Apr-17 18:23 38.170772 -91.645353 50 21709ft 441kts
29-Apr-17 18:24 38.234570 -91.535256 56 20160ft 424kts
29-Apr-17 18:25 38.286672 -91.427443 59 18706ft 408kts
29-Apr-17 18:26 38.332299 -91.326630 62 17361ft 401kts
29-Apr-17 18:27 38.377985 -91.222602 63 16029ft 394kts
29-Apr-17 18:28 38.422618 -91.121100 63 14691ft 375kts
29-Apr-17 18:29 38.464186 -91.026585 63 13393ft 358kts
29-Apr-17 18:30 38.503573 -90.936871 64 12833ft 321kts
29-Apr-17 18:31 38.537920 -90.852203 81 11682ft 304kts
29-Apr-17 18:32 38.532705 -90.762730 98 10529ft 288kts
29-Apr-17 18:33 38.524773 -90.678028 98 9421ft 279kts
29-Apr-17 18:34 38.516666 -90.597614 98 8418ft 269kts
29-Apr-17 18:35 38.507747 -90.511594 98 7392ft 256kts
29-Apr-17 18:36 38.498833 -90.429550 98 6348ft 247kts
29-Apr-17 18:37 38.490115 -90.353371 98 5473ft 227kts
29-Apr-17 18:38 38.504920 -90.287267 68 4951ft 192kts
29-Apr-17 18:39 38.525762 -90.241318 58 4968ft 145kts
29-Apr-17 18:40 38.552449 -90.198353 48 5004ft 212kts
29-Apr-17 18:41 38.591378 -90.150963 37 5006ft 227kts
29-Apr-17 18:42 38.642501 -90.152542 323 5031ft 261kts
29-Apr-17 18:43 38.661956 -90.192620 313 4163ft 256kts
29-Apr-17 18:44 38.681789 -90.233571 301 2826ft 262kts
29-Apr-17 18:45 38.709923 -90.291338 308 1816ft 195kts
29-Apr-17 18:46 38.731723 -90.334210 304 862ft 129kts
29-Apr-17 18:47 38.746813 -90.364755 302 613ft 35kts
29-Apr-17 18:48 38.745869 -90.367148 124 613ft 7kts
29-Apr-17 18:49 38.745122 -90.367231 245 613ft 0kts
29-Apr-17 18:50 38.731554 -90.333863 304 869ft 129kts
29-Apr-17 18:51 38.731002 -90.332735 304 887ft 129kts
29-Apr-17 18:52 38.732118 -90.335022 304 846ft 129kts
29-Apr-17 18:53 38.745122 -90.367231 245 613ft 0kts
29-Apr-17 18:54 38.745122 -90.367231 245 613ft 0kts
29-Apr-17 18:55 38.745122 -90.367231 245 613ft 0kts
29-Apr-17 18:56 38.745122 -90.367231 245 613ft 0kts
29-Apr-17 18:57 38.745122 -90.367231 245 613ft 0kts
29-Apr-17 18:58 38.745122 -90.367231 245 613ft 0kts
29-Apr-17 18:59 38.745122 -90.367231 245 613ft 0kts
29-Apr-17 19:00 38.745122 -90.367231 245 613ft 0kts
29-Apr-17 19:01 38.745122 -90.367231 245 613ft 0kts

Navigation Log

Ident Type
Flight plan parsing failed, navigation log unavailable